Terminal Aerodrome Forecast
Issued by NWS Sioux Falls, SD

Home | Current Version | Previous Version | Graphics & Text | Print | Product List | Glossary Off
Versions: 1 2 3 4 5 6 7 8 9 10 11 12 13

000
FTUS43 KFSD 271129
TAFFSD
TAF
KFSD 271129Z 2712/2812 VRB02KT P6SM FEW200
     FM271600 24005KT P6SM SCT050
     FM280100 20006KT P6SM SCT070 BKN200
      TEMPO 2805/2808 -SHRA BKN060
     FM280800 31007KT P6SM SCT060=

USA.gov is the U.S. government's official web portal to all federal, state and local government web resources and services.